createdAt,value
2017-02-11T00:00:05.561Z,41.6
2017-02-11T00:00:46.203Z,41.6
2017-02-11T00:01:26.840Z,41.31
2017-02-11T00:02:07.489Z,41.41
2017-02-11T00:02:48.120Z,41.41
2017-02-11T00:03:28.801Z,41.31
2017-02-11T00:04:09.446Z,41.41
2017-02-11T00:04:50.102Z,41.41
2017-02-11T00:05:30.785Z,41.31
2017-02-11T00:06:11.417Z,41.5
2017-02-11T00:06:52.099Z,41.6
2017-02-11T00:07:32.675Z,41.7
2017-02-11T00:08:13.361Z,41.7
2017-02-11T00:08:54.069Z,41.7
2017-02-11T00:09:34.722Z,41.6
2017-02-11T00:10:15.376Z,41.6
2017-02-11T00:10:56.018Z,41.6
2017-02-11T00:11:36.653Z,41.5
2017-02-11T00:12:17.350Z,41.6
2017-02-11T00:12:58.025Z,41.79
2017-02-11T00:13:38.656Z,41.6
2017-02-11T00:14:19.306Z,41.7
2017-02-11T00:15:00.000Z,41.6
2017-02-11T00:15:40.628Z,41.7
2017-02-11T00:16:21.259Z,41.79
2017-02-11T00:17:01.921Z,41.6
2017-02-11T00:17:42.559Z,41.7
2017-02-11T00:18:23.231Z,41.7
2017-02-11T00:19:03.878Z,41.79
2017-02-11T00:19:44.510Z,41.7
2017-02-11T00:20:25.144Z,41.89
2017-02-11T00:21:05.822Z,41.89
2017-02-11T00:21:46.527Z,41.99
2017-02-11T00:22:27.100Z,41.79
2017-02-11T00:23:07.733Z,41.99
2017-02-11T00:23:48.381Z,41.79
2017-02-11T00:24:28.991Z,41.99
2017-02-11T00:25:09.721Z,41.79
2017-02-11T00:25:50.413Z,41.79
2017-02-11T00:26:31.066Z,41.99
2017-02-11T00:27:11.703Z,41.99
2017-02-11T00:27:52.406Z,41.89
2017-02-11T00:28:33.048Z,41.79
2017-02-11T00:29:13.670Z,41.89
2017-02-11T00:29:54.413Z,41.7
2017-02-11T00:30:35.046Z,41.99
2017-02-11T00:31:15.701Z,41.79
2017-02-11T00:31:56.354Z,41.99
2017-02-11T00:32:37.007Z,41.99
2017-02-11T00:33:17.645Z,41.7
2017-02-11T00:33:58.312Z,41.89
2017-02-11T00:34:38.955Z,41.89
2017-02-11T00:35:19.592Z,42.08
2017-02-11T00:36:00.244Z,42.08
2017-02-11T00:36:40.958Z,42.08
2017-02-11T00:37:21.523Z,41.99
2017-02-11T00:38:02.179Z,41.89
2017-02-11T00:38:42.825Z,41.99
2017-02-11T00:39:23.455Z,41.89
2017-02-11T00:40:04.091Z,41.89
2017-02-11T00:40:44.732Z,42.08
2017-02-11T00:41:25.393Z,42.18
2017-02-11T00:42:06.074Z,42.18
2017-02-11T00:42:46.794Z,42.18
2017-02-11T00:43:27.448Z,42.27
2017-02-11T00:44:08.096Z,42.18
2017-02-11T00:44:48.749Z,42.18
2017-02-11T00:45:29.377Z,42.08
2017-02-11T00:46:10.023Z,41.89
2017-02-11T00:46:50.699Z,42.18
2017-02-11T00:47:31.330Z,42.08
2017-02-11T00:48:12.038Z,41.99
2017-02-11T00:48:52.729Z,42.08
2017-02-11T00:49:33.372Z,42.08
2017-02-11T00:50:14.064Z,42.08
2017-02-11T00:50:54.731Z,42.08
2017-02-11T00:51:35.447Z,42.18
2017-02-11T00:52:16.101Z,42.08
2017-02-11T00:52:56.726Z,42.08
2017-02-11T00:53:37.425Z,42.27
2017-02-11T00:54:18.052Z,42.18
2017-02-11T00:54:58.686Z,42.27
2017-02-11T00:55:39.321Z,42.18
2017-02-11T00:56:19.961Z,42.27
2017-02-11T00:57:00.614Z,42.27
2017-02-11T00:57:41.365Z,42.18
2017-02-11T00:58:21.994Z,42.18
2017-02-11T00:59:02.640Z,42.18
2017-02-11T00:59:43.307Z,42.18
2017-02-11T01:00:23.950Z,42.08
2017-02-11T01:01:04.581Z,42.08
2017-02-11T01:01:45.224Z,42.18
2017-02-11T01:02:25.877Z,42.08
2017-02-11T01:03:06.525Z,42.08
2017-02-11T01:03:47.201Z,42.08
2017-02-11T01:04:27.914Z,42.27
2017-02-11T01:05:08.502Z,42.27
2017-02-11T01:05:49.124Z,42.47
2017-02-11T01:06:29.786Z,42.47
2017-02-11T01:07:10.385Z,42.47
2017-02-11T01:07:51.055Z,42.27
2017-02-11T01:08:31.686Z,42.47
2017-02-11T01:09:12.362Z,42.27
2017-02-11T01:09:53.008Z,42.47
2017-02-11T01:10:33.711Z,42.18
2017-02-11T01:11:14.366Z,42.27
2017-02-11T01:11:55.055Z,42.37
2017-02-11T01:12:35.786Z,42.27
2017-02-11T01:13:16.425Z,42.27
2017-02-11T01:13:57.061Z,42.47
2017-02-11T01:14:37.748Z,42.47
2017-02-11T01:15:18.391Z,42.47
2017-02-11T01:15:59.011Z,42.47
2017-02-11T01:16:39.683Z,42.37
2017-02-11T01:17:20.304Z,42.37
2017-02-11T01:18:00.929Z,42.47
2017-02-11T01:18:41.625Z,42.47
2017-02-11T01:19:22.261Z,42.37
2017-02-11T01:20:02.911Z,42.47
2017-02-11T01:20:43.547Z,42.47
2017-02-11T01:21:24.181Z,42.47
2017-02-11T01:22:04.818Z,42.47
2017-02-11T01:22:45.483Z,42.47
2017-02-11T01:23:26.143Z,42.27
2017-02-11T01:24:06.763Z,42.27
2017-02-11T01:24:47.400Z,42.37
2017-02-11T01:25:28.033Z,42.27
2017-02-11T01:26:08.666Z,42.47
2017-02-11T01:26:49.424Z,42.47
2017-02-11T01:27:30.112Z,42.44
2017-02-11T01:28:10.789Z,42.47
2017-02-11T01:28:51.413Z,42.56
2017-02-11T01:29:32.051Z,42.47
2017-02-11T01:30:12.715Z,42.47
2017-02-11T01:30:53.337Z,42.56
2017-02-11T01:31:34.016Z,42.56
2017-02-11T01:32:14.671Z,42.47
2017-02-11T01:32:55.317Z,42.54
2017-02-11T01:33:36.027Z,42.47
2017-02-11T01:34:16.690Z,42.47
2017-02-11T01:34:57.327Z,42.44
2017-02-11T01:35:37.994Z,42.47
2017-02-11T01:36:18.641Z,42.47
2017-02-11T01:36:59.275Z,42.47
2017-02-11T01:37:39.918Z,42.37
2017-02-11T01:38:20.580Z,42.47
2017-02-11T01:39:01.189Z,42.47
2017-02-11T01:39:41.886Z,42.76
2017-02-11T01:40:22.613Z,42.73
2017-02-11T01:41:03.256Z,42.76
2017-02-11T01:41:43.882Z,42.64
2017-02-11T01:42:24.582Z,42.76
2017-02-11T01:43:05.231Z,42.44
2017-02-11T01:43:45.923Z,42.47
2017-02-11T01:44:26.618Z,42.73
2017-02-11T01:45:07.235Z,42.76
2017-02-11T01:45:47.872Z,42.76
2017-02-11T01:46:28.543Z,42.54
2017-02-11T01:47:09.178Z,42.66
2017-02-11T01:47:49.795Z,42.73
2017-02-11T01:48:30.491Z,42.73
2017-02-11T01:49:11.131Z,43.12
2017-02-11T01:49:51.808Z,42.73
2017-02-11T01:50:33.220Z,42.83
2017-02-11T01:51:13.850Z,42.54
2017-02-11T01:51:54.518Z,42.66
2017-02-11T01:52:35.154Z,42.83
2017-02-11T01:53:15.782Z,42.54
2017-02-11T01:53:56.464Z,42.83
2017-02-11T01:54:37.088Z,42.54
2017-02-11T01:55:17.731Z,42.94
2017-02-11T01:55:58.417Z,42.64
2017-02-11T01:56:39.158Z,42.83
2017-02-11T01:57:19.790Z,42.93
2017-02-11T01:58:00.439Z,42.93
2017-02-11T01:58:41.066Z,43.02
2017-02-11T01:59:21.695Z,42.83
2017-02-11T02:00:02.359Z,42.64
2017-02-11T02:00:42.987Z,43.31
2017-02-11T02:01:23.622Z,42.83
2017-02-11T02:02:04.296Z,42.93
2017-02-11T02:02:44.949Z,42.93
2017-02-11T02:03:25.584Z,42.93
2017-02-11T02:04:06.277Z,43.02
2017-02-11T02:04:46.965Z,42.83
2017-02-11T02:05:27.602Z,42.83
2017-02-11T02:06:08.236Z,42.93
2017-02-11T02:06:48.897Z,42.93
2017-02-11T02:07:29.582Z,42.93
2017-02-11T02:08:10.238Z,42.93
2017-02-11T02:08:50.875Z,42.93
2017-02-11T02:09:31.502Z,42.83
2017-02-11T02:10:12.128Z,42.83
2017-02-11T02:10:52.813Z,42.93
2017-02-11T02:11:33.447Z,43.12
2017-02-11T02:12:14.075Z,42.93
2017-02-11T02:12:54.742Z,42.83
2017-02-11T02:13:35.376Z,42.83
2017-02-11T02:14:16.012Z,43.02
2017-02-11T02:14:56.704Z,42.93
2017-02-11T02:15:37.352Z,42.73
2017-02-11T02:16:17.985Z,42.83
2017-02-11T02:16:58.631Z,42.85
2017-02-11T02:17:39.355Z,42.83
2017-02-11T02:18:19.989Z,43.02
2017-02-11T02:19:00.662Z,42.83
2017-02-11T02:19:41.286Z,43.02
2017-02-11T02:20:21.909Z,42.93
2017-02-11T02:21:02.603Z,42.93
2017-02-11T02:21:43.332Z,43.12
2017-02-11T02:22:23.960Z,42.83
2017-02-11T02:23:04.597Z,43.31
2017-02-11T02:23:45.260Z,43.12
2017-02-11T02:24:25.901Z,43.4
2017-02-11T02:25:06.528Z,43.12
2017-02-11T02:25:47.184Z,43.31
2017-02-11T02:26:27.818Z,43.4
2017-02-11T02:27:08.450Z,43.4
2017-02-11T02:27:49.124Z,43.31
2017-02-11T02:28:29.793Z,43.02
2017-02-11T02:29:10.429Z,43.12
2017-02-11T02:29:51.120Z,43.31
2017-02-11T02:30:31.738Z,43.12
2017-02-11T02:31:12.373Z,43.4
2017-02-11T02:31:53.085Z,43.12
2017-02-11T02:32:33.722Z,43.31
2017-02-11T02:33:14.351Z,43.12
2017-02-11T02:33:55.023Z,43.4
2017-02-11T02:34:35.740Z,43.4
2017-02-11T02:35:16.393Z,43.4
2017-02-11T02:35:57.029Z,43.31
2017-02-11T02:36:37.742Z,43.4
2017-02-11T02:37:18.453Z,43.21
2017-02-11T02:37:59.110Z,43.12
2017-02-11T02:38:39.761Z,43.12
2017-02-11T02:39:20.382Z,43.02
2017-02-11T02:40:01.021Z,43.31
2017-02-11T02:40:41.762Z,43.5
2017-02-11T02:41:22.372Z,43.5
2017-02-11T02:42:03.000Z,43.12
2017-02-11T02:42:43.648Z,43.12
2017-02-11T02:43:24.374Z,43.5
2017-02-11T02:44:05.004Z,43.6
2017-02-11T02:44:45.688Z,43.7
2017-02-11T02:45:26.309Z,43.4
2017-02-11T02:46:06.940Z,43.4
2017-02-11T02:46:47.624Z,43.7
2017-02-11T02:47:28.322Z,43.79
2017-02-11T02:48:08.953Z,43.7
2017-02-11T02:48:49.580Z,43.7
2017-02-11T02:49:30.253Z,43.79
2017-02-11T02:50:10.880Z,43.7
2017-02-11T02:50:51.520Z,43.7
2017-02-11T02:51:32.234Z,43.21
2017-02-11T02:52:12.858Z,43.4
2017-02-11T02:52:53.503Z,43.4
2017-02-11T02:53:34.228Z,43.6
2017-02-11T02:54:14.849Z,43.4
2017-02-11T02:54:55.523Z,43.5
2017-02-11T02:55:36.173Z,43.79
2017-02-11T02:56:16.801Z,43.6
2017-02-11T02:56:57.446Z,43.6
2017-02-11T02:57:38.083Z,43.7
2017-02-11T02:58:18.812Z,43.7
2017-02-11T02:58:59.440Z,43.7
2017-02-11T02:59:40.072Z,43.6
2017-02-11T03:00:20.730Z,43.6
2017-02-11T03:01:01.365Z,43.5
2017-02-11T03:01:42.105Z,43.7
2017-02-11T03:02:22.805Z,43.7
2017-02-11T03:03:03.524Z,43.6
2017-02-11T03:03:44.171Z,43.7
2017-02-11T03:04:24.905Z,43.7
2017-02-11T03:05:05.625Z,43.7
2017-02-11T03:05:46.261Z,43.79
2017-02-11T03:06:26.903Z,43.4
2017-02-11T03:07:07.599Z,43.4
2017-02-11T03:07:48.353Z,43.6
2017-02-11T03:08:28.991Z,43.6
2017-02-11T03:09:09.623Z,43.7
2017-02-11T03:09:50.299Z,43.5
2017-02-11T03:10:30.933Z,43.7
2017-02-11T03:11:11.579Z,43.7
2017-02-11T03:11:52.301Z,43.7
2017-02-11T03:12:32.943Z,43.7
2017-02-11T03:13:13.591Z,43.7
2017-02-11T03:13:54.253Z,43.79
2017-02-11T03:14:34.877Z,43.88
2017-02-11T03:15:15.604Z,43.79
2017-02-11T03:15:56.257Z,43.6
2017-02-11T03:16:36.969Z,43.6
2017-02-11T03:17:17.621Z,43.6
2017-02-11T03:17:58.309Z,43.6
2017-02-11T03:18:39.089Z,43.5
2017-02-11T03:19:19.735Z,43.7
2017-02-11T03:20:00.398Z,43.5
2017-02-11T03:20:41.097Z,43.7
2017-02-11T03:21:21.782Z,43.5
2017-02-11T03:22:02.423Z,43.88
2017-02-11T03:22:43.095Z,43.6
2017-02-11T03:23:23.744Z,43.6
2017-02-11T03:24:04.368Z,44.08
2017-02-11T03:24:45.072Z,43.5
2017-02-11T03:25:25.756Z,43.5
2017-02-11T03:26:06.395Z,43.79
2017-02-11T03:26:47.115Z,43.98
2017-02-11T03:27:27.732Z,43.88
2017-02-11T03:28:08.370Z,43.79
2017-02-11T03:28:49.050Z,43.5
2017-02-11T03:29:29.773Z,43.4
2017-02-11T03:30:10.429Z,43.79
2017-02-11T03:30:51.072Z,43.88
2017-02-11T03:31:31.763Z,43.4
2017-02-11T03:32:12.399Z,43.88
2017-02-11T03:32:53.031Z,43.88
2017-02-11T03:33:33.745Z,43.79
2017-02-11T03:34:14.404Z,43.6
2017-02-11T03:34:55.034Z,43.4
2017-02-11T03:35:35.692Z,44.17
2017-02-11T03:36:16.392Z,43.79
2017-02-11T03:36:57.019Z,43.7
2017-02-11T03:37:37.723Z,43.7
2017-02-11T03:38:18.454Z,43.88
2017-02-11T03:38:59.965Z,43.7
2017-02-11T03:39:39.726Z,43.7
2017-02-11T03:40:20.381Z,44.08
2017-02-11T03:41:01.112Z,43.5
2017-02-11T03:41:41.755Z,43.5
2017-02-11T03:42:22.410Z,43.98
2017-02-11T03:43:03.138Z,43.98
2017-02-11T03:43:43.768Z,43.31
2017-02-11T03:44:25.057Z,43.7
2017-02-11T03:45:05.689Z,43.79
2017-02-11T03:45:46.394Z,43.79
2017-02-11T03:46:27.154Z,43.79
2017-02-11T03:47:07.798Z,43.6
2017-02-11T03:47:48.440Z,43.7
2017-02-11T03:48:29.090Z,43.88
2017-02-11T03:49:09.787Z,43.7
2017-02-11T03:49:50.408Z,43.79
2017-02-11T03:50:31.103Z,43.7
2017-02-11T03:51:11.869Z,43.7
2017-02-11T03:51:52.491Z,43.6
2017-02-11T03:52:33.111Z,43.6
2017-02-11T03:53:13.801Z,43.79
2017-02-11T03:53:54.447Z,43.98
2017-02-11T03:54:35.077Z,43.98
2017-02-11T03:55:15.839Z,43.5
2017-02-11T03:55:57.022Z,43.79
2017-02-11T03:56:37.755Z,43.88
2017-02-11T03:57:18.445Z,44.17
2017-02-11T03:57:59.094Z,43.6
2017-02-11T03:58:39.790Z,43.6
2017-02-11T03:59:20.505Z,43.7
2017-02-11T04:00:01.137Z,43.7
2017-02-11T04:00:41.763Z,43.6
2017-02-11T04:01:22.457Z,43.6
2017-02-11T04:02:03.083Z,43.6
2017-02-11T04:02:44.604Z,43.6
2017-02-11T04:03:25.277Z,43.88
2017-02-11T04:04:05.896Z,43.79
2017-02-11T04:04:46.629Z,43.79
2017-02-11T04:05:27.343Z,43.88
2017-02-11T04:06:07.967Z,43.79
2017-02-11T04:06:48.613Z,44.08
2017-02-11T04:07:29.369Z,43.6
2017-02-11T04:08:10.531Z,43.6
2017-02-11T04:08:51.223Z,44.17
2017-02-11T04:09:31.852Z,43.98
2017-02-11T04:10:12.468Z,43.88
2017-02-11T04:10:53.099Z,43.6
2017-02-11T04:11:33.728Z,43.7
2017-02-11T04:12:17.143Z,43.7
2017-02-11T04:12:57.773Z,43.7
2017-02-11T04:13:38.415Z,43.7
2017-02-11T04:14:19.041Z,43.79
2017-02-11T04:14:59.667Z,43.6
2017-02-11T04:15:40.298Z,43.6
2017-02-11T04:16:20.934Z,43.7
2017-02-11T04:17:01.559Z,43.7
2017-02-11T04:17:42.252Z,43.79
2017-02-11T04:18:23.003Z,43.7
2017-02-11T04:19:03.664Z,43.7
2017-02-11T04:19:44.288Z,43.7
2017-02-11T04:20:25.014Z,43.7
2017-02-11T04:21:05.753Z,43.6
2017-02-11T04:21:46.422Z,43.79
2017-02-11T04:22:27.037Z,43.6
2017-02-11T04:23:07.784Z,43.88
2017-02-11T04:23:48.482Z,44.08
2017-02-11T04:24:29.109Z,43.79
2017-02-11T04:25:10.388Z,43.88
2017-02-11T04:25:51.029Z,43.7
2017-02-11T04:26:31.664Z,43.6
2017-02-11T04:27:12.413Z,44.08
2017-02-11T04:27:53.048Z,44.17
2017-02-11T04:28:33.771Z,44.27
2017-02-11T04:29:14.449Z,43.88
2017-02-11T04:29:55.078Z,43.6
2017-02-11T04:30:35.709Z,43.7
2017-02-11T04:31:16.355Z,43.6
2017-02-11T04:31:56.977Z,43.7
2017-02-11T04:32:37.625Z,43.88
2017-02-11T04:33:18.320Z,43.88
2017-02-11T04:33:58.952Z,43.7
2017-02-11T04:34:39.620Z,43.88
2017-02-11T04:35:20.334Z,43.7
2017-02-11T04:36:01.027Z,43.79
2017-02-11T04:36:41.651Z,43.7
2017-02-11T04:37:22.275Z,43.98
2017-02-11T04:38:02.966Z,43.7
2017-02-11T04:38:43.600Z,43.7
2017-02-11T04:39:24.227Z,43.79
2017-02-11T04:40:04.847Z,43.88
2017-02-11T04:40:45.468Z,43.88
2017-02-11T04:41:26.103Z,43.98
2017-02-11T04:42:06.743Z,43.6
2017-02-11T04:42:47.374Z,43.79
2017-02-11T04:43:28.137Z,43.79
2017-02-11T04:44:08.766Z,43.7
2017-02-11T04:44:49.402Z,43.98
2017-02-11T04:45:30.029Z,43.88
2017-02-11T04:46:10.747Z,43.88
2017-02-11T04:46:51.393Z,43.79
2017-02-11T04:47:32.097Z,44.27
2017-02-11T04:48:12.836Z,43.79
2017-02-11T04:48:53.516Z,43.88
2017-02-11T04:49:34.143Z,44.17
2017-02-11T04:50:14.881Z,43.88
2017-02-11T04:50:55.539Z,43.98
2017-02-11T04:51:36.175Z,43.98
2017-02-11T04:52:16.885Z,43.79
2017-02-11T04:52:57.515Z,44.17
2017-02-11T04:53:38.136Z,43.6
2017-02-11T04:54:19.564Z,43.79
2017-02-11T04:55:00.291Z,43.88
2017-02-11T04:55:40.951Z,43.7
2017-02-11T04:56:21.592Z,43.7
2017-02-11T04:57:02.267Z,43.79
2017-02-11T04:57:42.910Z,43.79
2017-02-11T04:58:23.560Z,43.6
2017-02-11T04:59:04.280Z,43.88
2017-02-11T04:59:44.909Z,44.17
2017-02-11T05:00:25.537Z,44.27
2017-02-11T05:01:06.219Z,44.27
2017-02-11T05:01:46.861Z,44.46
2017-02-11T05:02:27.480Z,44.37
2017-02-11T05:03:08.172Z,43.5
2017-02-11T05:03:48.807Z,43.6
2017-02-11T05:04:29.438Z,44.08
2017-02-11T05:05:10.082Z,44.46
2017-02-11T05:05:50.700Z,44.27
2017-02-11T05:06:31.389Z,44.37
2017-02-11T05:07:12.026Z,44.17
2017-02-11T05:07:52.661Z,44.08
2017-02-11T05:08:33.299Z,43.7
2017-02-11T05:09:13.959Z,43.88
2017-02-11T05:09:54.590Z,43.7
2017-02-11T05:10:35.208Z,43.79
2017-02-11T05:11:15.891Z,43.79
2017-02-11T05:11:56.619Z,43.88
2017-02-11T05:12:37.166Z,43.98
2017-02-11T05:13:17.866Z,44.46
2017-02-11T05:13:58.528Z,44.37
2017-02-11T05:14:39.194Z,44.37
2017-02-11T05:15:19.841Z,44.46
2017-02-11T05:16:00.556Z,43.79
2017-02-11T05:16:41.195Z,43.7
2017-02-11T05:17:21.824Z,43.79
2017-02-11T05:18:02.562Z,43.79
2017-02-11T05:18:43.197Z,44.17
2017-02-11T05:19:23.827Z,44.17
2017-02-11T05:20:04.498Z,43.98
2017-02-11T05:20:45.127Z,44.27
2017-02-11T05:21:25.763Z,44.27
2017-02-11T05:22:06.457Z,44.46
2017-02-11T05:22:47.088Z,44.44
2017-02-11T05:23:27.724Z,44.34
2017-02-11T05:24:08.363Z,44.44
2017-02-11T05:24:49.003Z,44.27
2017-02-11T05:25:29.679Z,44.37
2017-02-11T05:26:10.327Z,44.37
2017-02-11T05:26:50.955Z,44.34
2017-02-11T05:27:31.600Z,44.37
2017-02-11T05:28:12.256Z,44.46
2017-02-11T05:28:52.941Z,44.56
2017-02-11T05:29:33.522Z,44.37
2017-02-11T05:30:14.258Z,44.37
2017-02-11T05:30:54.946Z,44.54
2017-02-11T05:31:35.590Z,44.44
2017-02-11T05:32:16.262Z,44.37
2017-02-11T05:32:56.991Z,44.37
2017-02-11T05:33:37.634Z,44.27
2017-02-11T05:34:18.279Z,43.88
2017-02-11T05:34:58.941Z,43.88
2017-02-11T05:35:39.576Z,44.17
2017-02-11T05:36:20.207Z,44.46
2017-02-11T05:37:00.880Z,44.17
2017-02-11T05:37:41.530Z,44.34
2017-02-11T05:38:22.215Z,44.34
2017-02-11T05:39:02.874Z,44.44
2017-02-11T05:39:43.556Z,44.44
2017-02-11T05:40:24.120Z,44.34
2017-02-11T05:41:04.755Z,44.73
2017-02-11T05:41:45.390Z,44.73
2017-02-11T05:42:26.009Z,44.82
2017-02-11T05:43:06.712Z,44.44
2017-02-11T05:43:47.380Z,44.24
2017-02-11T05:44:27.973Z,44.34
2017-02-11T05:45:08.620Z,44.44
2017-02-11T05:45:49.262Z,44.44
2017-02-11T05:46:29.881Z,44.34
2017-02-11T05:47:10.555Z,44.34
2017-02-11T05:47:51.187Z,44.34
2017-02-11T05:48:31.822Z,44.34
2017-02-11T05:49:12.480Z,44.24
2017-02-11T05:49:53.101Z,44.24
2017-02-11T05:50:33.721Z,44.44
2017-02-11T05:51:14.457Z,44.34
2017-02-11T05:51:55.111Z,44.24
2017-02-11T05:52:35.736Z,44.34
2017-02-11T05:53:16.446Z,44.34
2017-02-11T05:53:57.068Z,44.54
2017-02-11T05:54:37.686Z,44.37
2017-02-11T05:55:18.358Z,44.24
2017-02-11T05:55:58.979Z,44.44
2017-02-11T05:56:39.607Z,44.24
2017-02-11T05:57:20.293Z,44.34
2017-02-11T05:58:00.927Z,44.34
2017-02-11T05:58:41.554Z,44.34
2017-02-11T05:59:22.237Z,44.34
2017-02-11T06:00:02.873Z,44.34
2017-02-11T06:00:43.494Z,44.34
2017-02-11T06:01:24.184Z,44.37
2017-02-11T06:02:04.834Z,44.34
2017-02-11T06:02:45.456Z,44.44
2017-02-11T06:03:26.104Z,44.34
2017-02-11T06:04:06.765Z,44.34
2017-02-11T06:04:47.404Z,44.37
2017-02-11T06:05:28.139Z,44.34
2017-02-11T06:06:08.842Z,44.34
2017-02-11T06:06:49.512Z,44.34
2017-02-11T06:07:30.191Z,44.34
2017-02-11T06:08:10.878Z,44.34
2017-02-11T06:08:51.510Z,44.37
2017-02-11T06:09:32.138Z,44.24
2017-02-11T06:10:12.813Z,44.34
2017-02-11T06:10:53.441Z,44.24
2017-02-11T06:11:34.111Z,44.75
2017-02-11T06:12:14.778Z,44.73
2017-02-11T06:12:55.505Z,44.06
2017-02-11T06:13:36.143Z,44.34
2017-02-11T06:14:16.856Z,44.34
2017-02-11T06:14:57.573Z,44.37
2017-02-11T06:15:38.309Z,44.24
2017-02-11T06:16:18.925Z,44.73
2017-02-11T06:16:59.573Z,44.15
2017-02-11T06:17:40.315Z,44.24
2017-02-11T06:18:20.960Z,44.37
2017-02-11T06:19:01.590Z,44.34
2017-02-11T06:19:42.271Z,44.24
2017-02-11T06:20:22.895Z,44.34
2017-02-11T06:21:03.520Z,44.24
2017-02-11T06:21:44.207Z,44.44
2017-02-11T06:22:24.843Z,44.34
2017-02-11T06:23:05.465Z,44.24
2017-02-11T06:23:46.249Z,44.73
2017-02-11T06:24:26.958Z,44.82
2017-02-11T06:25:07.591Z,44.44
2017-02-11T06:25:48.222Z,44.34
2017-02-11T06:26:28.899Z,44.44
2017-02-11T06:27:09.524Z,44.54
2017-02-11T06:27:50.145Z,44.34
2017-02-11T06:28:30.818Z,44.34
2017-02-11T06:29:11.463Z,44.73
2017-02-11T06:29:52.097Z,44.24
2017-02-11T06:30:32.826Z,44.15
2017-02-11T06:31:13.462Z,44.34
2017-02-11T06:31:54.106Z,44.24
2017-02-11T06:32:34.781Z,44.34
2017-02-11T06:33:15.419Z,44.34
2017-02-11T06:33:56.056Z,44.34
2017-02-11T06:34:36.734Z,44.34
2017-02-11T06:35:17.364Z,44.34
2017-02-11T06:35:58.003Z,44.24
2017-02-11T06:36:38.670Z,44.73
2017-02-11T06:37:19.366Z,44.73
2017-02-11T06:37:59.954Z,44.73
2017-02-11T06:38:40.572Z,44.65
2017-02-11T06:39:21.201Z,44.63
2017-02-11T06:40:01.825Z,44.73
2017-02-11T06:40:42.571Z,44.63
2017-02-11T06:41:23.277Z,44.82
2017-02-11T06:42:03.937Z,44.63
2017-02-11T06:42:44.600Z,44.73
2017-02-11T06:43:25.291Z,44.63
2017-02-11T06:44:05.920Z,44.63
2017-02-11T06:44:46.555Z,44.73
2017-02-11T06:45:27.294Z,44.73
2017-02-11T06:46:07.927Z,44.54
2017-02-11T06:46:48.553Z,44.54
2017-02-11T06:47:29.223Z,44.44
2017-02-11T06:48:09.862Z,44.54
2017-02-11T06:48:50.497Z,44.44
2017-02-11T06:49:31.179Z,44.54
2017-02-11T06:50:11.814Z,44.54
2017-02-11T06:50:52.459Z,44.54
2017-02-11T06:51:33.089Z,44.63
2017-02-11T06:52:13.728Z,44.54
2017-02-11T06:52:54.355Z,44.54
2017-02-11T06:53:35.030Z,44.54
2017-02-11T06:54:15.671Z,44.44
2017-02-11T06:54:56.286Z,44.54
2017-02-11T06:55:36.959Z,44.63
2017-02-11T06:56:17.660Z,44.63
2017-02-11T06:56:58.236Z,44.73
2017-02-11T06:57:38.914Z,44.73
2017-02-11T06:58:19.651Z,44.63
2017-02-11T06:59:00.308Z,44.63
2017-02-11T06:59:41.065Z,44.54
2017-02-11T07:00:21.728Z,44.54
2017-02-11T07:01:02.349Z,44.44
2017-02-11T07:01:42.975Z,44.44
2017-02-11T07:02:23.654Z,44.54
2017-02-11T07:03:04.303Z,44.44
2017-02-11T07:03:44.930Z,44.54
2017-02-11T07:04:25.628Z,44.54
2017-02-11T07:05:06.380Z,44.44
2017-02-11T07:05:47.040Z,44.54
2017-02-11T07:06:27.673Z,44.54
2017-02-11T07:07:08.348Z,44.63
2017-02-11T07:07:48.993Z,44.54
2017-02-11T07:08:29.621Z,44.54
2017-02-11T07:09:10.295Z,44.73
2017-02-11T07:09:50.918Z,44.73
2017-02-11T07:10:31.546Z,44.63
2017-02-11T07:11:12.204Z,44.73
2017-02-11T07:11:52.824Z,44.82
2017-02-11T07:12:33.468Z,44.73
2017-02-11T07:13:14.154Z,44.73
2017-02-11T07:13:54.791Z,44.63
2017-02-11T07:14:35.424Z,44.63
2017-02-11T07:15:16.168Z,44.54
2017-02-11T07:15:56.802Z,44.54
2017-02-11T07:16:37.425Z,44.44
2017-02-11T07:17:18.101Z,44.63
2017-02-11T07:17:58.739Z,44.63
2017-02-11T07:18:39.358Z,44.63
2017-02-11T07:19:20.027Z,44.54
2017-02-11T07:20:00.669Z,44.54
2017-02-11T07:20:41.308Z,44.54
2017-02-11T07:21:21.978Z,44.63
2017-02-11T07:22:02.693Z,44.54
2017-02-11T07:22:43.243Z,44.63
2017-02-11T07:23:23.988Z,44.63
2017-02-11T07:24:04.676Z,44.63
2017-02-11T07:24:45.320Z,44.73
2017-02-11T07:25:25.951Z,44.63
2017-02-11T07:26:06.633Z,44.73
2017-02-11T07:26:47.272Z,44.73
2017-02-11T07:27:27.951Z,44.73
2017-02-11T07:28:08.704Z,44.73
2017-02-11T07:28:49.347Z,44.73
2017-02-11T07:29:30.013Z,44.82
2017-02-11T07:30:10.710Z,44.82
2017-02-11T07:30:51.393Z,44.73
2017-02-11T07:31:32.027Z,44.73
2017-02-11T07:32:12.747Z,44.92
2017-02-11T07:32:53.367Z,44.82
2017-02-11T07:33:33.990Z,44.63
2017-02-11T07:34:14.689Z,44.63
2017-02-11T07:34:55.371Z,44.73
2017-02-11T07:35:35.993Z,44.92
2017-02-11T07:36:16.722Z,44.92
2017-02-11T07:36:57.489Z,44.73
2017-02-11T07:37:38.126Z,44.73
2017-02-11T07:38:18.747Z,44.82
2017-02-11T07:38:59.433Z,44.92
2017-02-11T07:39:40.102Z,44.92
2017-02-11T07:40:20.742Z,44.92
2017-02-11T07:41:01.465Z,44.92
2017-02-11T07:41:42.125Z,44.73
2017-02-11T07:42:22.764Z,44.82
2017-02-11T07:43:03.431Z,44.82
2017-02-11T07:43:44.076Z,44.73
2017-02-11T07:44:24.718Z,44.92
2017-02-11T07:45:05.417Z,44.82
2017-02-11T07:45:46.113Z,44.92
2017-02-11T07:46:26.774Z,44.82
2017-02-11T07:47:07.426Z,44.82
2017-02-11T07:47:48.179Z,44.92
2017-02-11T07:48:28.924Z,44.92
2017-02-11T07:49:09.549Z,44.73
2017-02-11T07:49:50.200Z,44.82
2017-02-11T07:50:30.841Z,44.92
2017-02-11T07:51:11.493Z,44.82
2017-02-11T07:51:52.124Z,44.63
2017-02-11T07:52:32.754Z,44.73
2017-02-11T07:53:13.375Z,44.63
2017-02-11T07:53:54.081Z,44.73
2017-02-11T07:54:34.773Z,44.82
2017-02-11T07:55:15.392Z,44.82
2017-02-11T07:55:56.061Z,44.73
2017-02-11T07:56:36.739Z,44.73
2017-02-11T07:57:17.410Z,44.73
2017-02-11T07:57:58.044Z,44.82
2017-02-11T07:58:38.735Z,44.63
2017-02-11T07:59:19.363Z,44.54
2017-02-11T08:00:00.014Z,44.63
2017-02-11T08:00:40.690Z,44.82
2017-02-11T08:01:21.392Z,44.82
2017-02-11T08:02:02.021Z,44.82
2017-02-11T08:02:42.669Z,44.82
2017-02-11T08:03:23.298Z,44.82
2017-02-11T08:04:03.925Z,44.82
2017-02-11T08:04:44.605Z,44.73
2017-02-11T08:05:25.235Z,44.92
2017-02-11T08:06:05.871Z,45.01
2017-02-11T08:06:46.528Z,44.92
2017-02-11T08:07:27.267Z,44.92
2017-02-11T08:08:07.966Z,44.92
2017-02-11T08:08:48.526Z,44.92
2017-02-11T08:09:29.211Z,44.82
2017-02-11T08:10:09.834Z,44.82
2017-02-11T08:10:50.458Z,44.92
2017-02-11T08:11:31.162Z,44.92
2017-02-11T08:12:11.798Z,44.73
2017-02-11T08:12:52.443Z,44.82
2017-02-11T08:13:33.109Z,44.92
2017-02-11T08:14:13.731Z,44.82
2017-02-11T08:14:54.368Z,44.82
2017-02-11T08:15:35.028Z,44.73
2017-02-11T08:16:15.713Z,44.92
2017-02-11T08:16:56.340Z,44.92
2017-02-11T08:17:37.018Z,45.01
2017-02-11T08:18:17.647Z,44.92
2017-02-11T08:18:58.281Z,45.01
2017-02-11T08:19:38.947Z,44.82
2017-02-11T08:20:19.630Z,45.01
2017-02-11T08:21:00.255Z,44.82
2017-02-11T08:21:40.899Z,44.73
2017-02-11T08:22:21.544Z,44.92
2017-02-11T08:23:02.168Z,44.82
2017-02-11T08:23:42.869Z,44.82
2017-02-11T08:24:23.577Z,45.01
2017-02-11T08:25:04.215Z,44.92
2017-02-11T08:25:44.854Z,45.01
2017-02-11T08:26:25.624Z,44.82
2017-02-11T08:27:06.287Z,45.01
2017-02-11T08:27:46.917Z,45.11
2017-02-11T08:28:27.622Z,44.92
2017-02-11T08:29:08.245Z,44.82
2017-02-11T08:29:48.891Z,45.01
2017-02-11T08:30:29.572Z,44.92
2017-02-11T08:31:10.224Z,44.92
2017-02-11T08:31:50.873Z,44.82
2017-02-11T08:32:31.616Z,45.11
2017-02-11T08:33:12.314Z,45.11
2017-02-11T08:33:52.961Z,44.92
2017-02-11T08:34:33.608Z,45.01
2017-02-11T08:35:14.268Z,44.92
2017-02-11T08:35:54.921Z,44.82
2017-02-11T08:36:35.582Z,44.82
2017-02-11T08:37:16.256Z,44.82
2017-02-11T08:37:56.883Z,44.82
2017-02-11T08:38:37.525Z,45.01
2017-02-11T08:39:18.220Z,45.01
2017-02-11T08:39:58.952Z,44.82
2017-02-11T08:40:39.594Z,44.82
2017-02-11T08:41:20.259Z,44.82
2017-02-11T08:42:01.037Z,45.01
2017-02-11T08:42:41.670Z,44.82
2017-02-11T08:43:22.319Z,44.92
2017-02-11T08:44:03.059Z,44.73
2017-02-11T08:44:43.765Z,44.92
2017-02-11T08:45:24.396Z,45.11
2017-02-11T08:46:05.022Z,45.01
2017-02-11T08:46:45.758Z,45.11